Time;durP1;ratioP1;P1;durP2;ratioP2;P2;SDS_P1;SDS_P2;PMS_P1;PMS_P2;Temp;Humidity;BMP_temperature;BMP_pressure;BME280_temperature;BME280_humidity;BME280_pressure;Samples;Min_cycle;Max_cycle;Signal;HPM_P1;HPM_P2
2021/06/10 00:01:05;;;;;;;7.43;6.72;;;;;;;17.53;100.00;101358.91;5018236;28;20227;-75
2021/06/10 00:03:35;;;;;;;7.38;6.72;;;;;;;17.57;100.00;101359.94;5044623;28;20221;-74
2021/06/10 00:06:03;;;;;;;7.25;6.65;;;;;;;17.69;100.00;101362.19;5038369;28;20215;-75
2021/06/10 00:08:29;;;;;;;7.45;6.85;;;;;;;17.60;100.00;101359.34;5039152;28;20716;-75
2021/06/10 00:10:54;;;;;;;7.97;7.38;;;;;;;17.54;100.00;101366.00;5037895;28;20234;-75
2021/06/10 00:13:20;;;;;;;8.63;7.28;;;;;;;17.47;100.00;101365.59;5037780;28;20194;-76
2021/06/10 00:15:46;;;;;;;7.80;7.13;;;;;;;17.50;100.00;101354.00;5038020;28;20226;-75
2021/06/10 00:18:12;;;;;;;8.10;7.40;;;;;;;17.50;100.00;101361.44;5054921;28;20238;-75
2021/06/10 00:20:42;;;;;;;7.50;6.80;;;;;;;17.42;100.00;101362.94;5054982;28;20226;-75
2021/06/10 00:23:08;;;;;;;7.45;6.75;;;;;;;17.44;100.00;101355.19;5054591;28;20186;-75
2021/06/10 00:25:33;;;;;;;7.47;6.88;;;;;;;17.33;100.00;101359.22;5037607;28;20598;-76
2021/06/10 00:27:59;;;;;;;7.72;7.03;;;;;;;17.34;100.00;101355.38;5021713;28;20232;-75
2021/06/10 00:30:25;;;;;;;7.70;7.10;;;;;;;17.34;100.00;101349.06;5034190;28;20207;-75
2021/06/10 00:32:51;;;;;;;7.78;7.18;;;;;;;17.34;100.00;101355.38;5045867;28;20431;-75
2021/06/10 00:35:22;;;;;;;7.72;7.13;;;;;;;17.37;100.00;101346.53;5021118;28;20182;-75
2021/06/10 00:37:47;;;;;;;8.10;7.30;;;;;;;17.26;100.00;101352.47;5040723;28;20215;-76
2021/06/10 00:40:15;;;;;;;8.02;7.22;;;;;;;17.16;100.00;101357.28;5054726;28;20211;-75
2021/06/10 00:42:43;;;;;;;7.80;7.20;;;;;;;17.05;100.00;101351.16;5055143;28;20190;-75
2021/06/10 00:45:13;;;;;;;8.35;7.65;;;;;;;17.12;100.00;101345.25;5037303;28;20190;-75
2021/06/10 00:47:39;;;;;;;8.88;8.07;;;;;;;17.08;100.00;101347.78;5038207;28;20193;-75
2021/06/10 00:50:10;;;;;;;8.60;7.88;;;;;;;17.20;100.00;101347.38;5021256;28;20210;-75
2021/06/10 00:52:35;;;;;;;8.27;7.68;;;;;;;17.16;100.00;101340.81;5053482;28;20301;-75
2021/06/10 00:55:03;;;;;;;8.50;7.80;;;;;;;17.10;100.00;101325.53;5019630;28;20187;-75
2021/06/10 00:57:29;;;;;;;8.73;8.02;;;;;;;17.04;100.00;101337.72;5054254;28;20227;-75
2021/06/10 00:59:54;;;;;;;8.45;7.78;;;;;;;17.10;100.00;101339.25;5037442;28;20238;-75
2021/06/10 01:02:23;;;;;;;8.15;7.55;;;;;;;16.95;100.00;101328.50;5005331;28;20306;-75
2021/06/10 01:04:51;;;;;;;8.48;7.65;;;;;;;16.87;100.00;101331.94;5022086;28;20186;-75
2021/06/10 01:07:23;;;;;;;8.57;7.68;;;;;;;17.02;100.00;101329.78;5037232;28;20222;-75
2021/06/10 01:10:02;;;;;;;8.23;7.53;;;;;;;17.21;100.00;101329.78;5021418;28;20203;-75
2021/06/10 01:12:56;;;;;;;8.43;7.63;;;;;;;17.19;100.00;101334.75;5020337;28;20262;-75
2021/06/10 01:15:29;;;;;;;8.15;7.55;;;;;;;17.18;100.00;101327.63;5037570;28;20227;-74
2021/06/10 01:17:54;;;;;;;9.05;8.18;;;;;;;17.19;100.00;101323.78;5037720;28;20213;-74
2021/06/10 01:20:27;;;;;;;8.80;8.10;;;;;;;17.01;100.00;101321.81;5036905;28;20302;-77
2021/06/10 01:22:56;;;;;;;8.55;7.93;;;;;;;17.03;100.00;101336.06;5036447;28;20189;-76
2021/06/10 01:25:24;;;;;;;9.13;8.32;;;;;;;17.00;100.00;101325.69;5053182;28;20179;-76
2021/06/10 01:27:56;;;;;;;9.35;8.55;;;;;;;16.96;100.00;101336.47;5054034;28;20175;-76
2021/06/10 01:30:32;;;;;;;8.82;8.15;;;;;;;17.04;100.00;101332.22;5017292;28;20215;-74
2021/06/10 01:33:02;;;;;;;9.60;8.63;;;;;;;16.93;100.00;101331.56;5031076;28;20187;-76
2021/06/10 01:35:32;;;;;;;8.57;7.78;;;;;;;17.05;100.00;101322.84;5016754;28;20655;-76
2021/06/10 01:38:00;;;;;;;9.13;8.38;;;;;;;17.08;100.00;101322.28;5017818;28;20219;-75
2021/06/10 01:40:25;;;;;;;9.05;8.35;;;;;;;17.12;100.00;101328.78;5033374;28;20685;-75
2021/06/10 01:42:53;;;;;;;8.57;7.88;;;;;;;17.18;100.00;101320.22;5021275;28;20183;-77
2021/06/10 01:45:20;;;;;;;9.07;8.38;;;;;;;17.18;100.00;101320.22;5022581;28;20233;-75
2021/06/10 01:47:46;;;;;;;8.70;8.00;;;;;;;17.33;100.00;101319.97;5023519;28;20183;-76
2021/06/10 01:50:13;;;;;;;9.75;8.95;;;;;;;17.27;100.00;101320.34;5019780;28;20771;-76
2021/06/10 01:52:43;;;;;;;9.52;8.63;;;;;;;16.98;100.00;101327.94;5036776;28;20184;-76
2021/06/10 01:55:13;;;;;;;9.77;8.98;;;;;;;16.93;100.00;101330.75;5036003;28;20180;-76
2021/06/10 01:57:39;;;;;;;8.90;8.20;;;;;;;17.14;100.00;101326.56;5018777;28;20212;-76
2021/06/10 02:00:09;;;;;;;9.30;8.55;;;;;;;17.13;100.00;101325.75;5035781;28;20298;-76
2021/06/10 02:02:37;;;;;;;9.23;8.50;;;;;;;17.27;100.00;101315.69;5050938;28;20219;-76
2021/06/10 02:05:05;;;;;;;8.88;8.18;;;;;;;17.39;100.00;101311.31;5037741;28;20213;-76
2021/06/10 02:07:31;;;;;;;9.45;8.55;;;;;;;17.46;100.00;101303.50;5020967;28;20175;-75
2021/06/10 02:09:59;;;;;;;9.48;8.68;;;;;;;17.52;100.00;101296.81;5021471;28;20287;-76
2021/06/10 02:12:29;;;;;;;10.80;9.68;;;;;;;17.61;100.00;101305.19;5035950;28;20253;-76
2021/06/10 02:15:01;;;;;;;11.32;10.30;;;;;;;17.44;100.00;101304.94;5020834;28;20186;-75
2021/06/10 02:17:26;;;;;;;9.85;9.05;;;;;;;17.19;100.00;101301.81;5019529;28;20265;-76
2021/06/10 02:19:52;;;;;;;9.50;8.70;;;;;;;17.33;100.00;101294.44;5020029;28;20202;-76
2021/06/10 02:22:20;;;;;;;9.77;8.85;;;;;;;17.45;100.00;101295.56;5052034;28;20222;-76
2021/06/10 02:24:48;;;;;;;9.50;8.70;;;;;;;17.53;100.00;101290.22;5020165;28;20187;-78
2021/06/10 02:27:14;;;;;;;10.43;9.45;;;;;;;17.64;100.00;101288.09;5035995;28;20746;-76
2021/06/10 02:29:40;;;;;;;10.02;9.23;;;;;;;17.73;100.00;101292.59;5052956;28;20199;-76
2021/06/10 02:32:09;;;;;;;9.15;8.45;;;;;;;17.78;100.00;101281.47;4998734;28;20733;-76
2021/06/10 02:34:35;;;;;;;9.07;8.35;;;;;;;17.76;100.00;101286.47;5034920;28;20225;-76
2021/06/10 02:37:00;;;;;;;9.95;9.15;;;;;;;17.76;100.00;101286.47;5019258;28;20230;-76
2021/06/10 02:39:28;;;;;;;10.52;9.63;;;;;;;17.62;100.00;101285.66;5036288;28;20943;-76
2021/06/10 02:41:56;;;;;;;10.45;9.55;;;;;;;17.36;100.00;101284.47;5036043;28;20243;-76
2021/06/10 02:44:25;;;;;;;9.85;8.98;;;;;;;17.43;100.00;101279.38;5019837;28;20222;-76
2021/06/10 02:46:51;;;;;;;9.68;8.88;;;;;;;17.46;100.00;101281.53;5035593;28;20678;-76
2021/06/10 02:49:16;;;;;;;9.45;8.55;;;;;;;17.42;100.00;101280.50;5003168;28;20182;-76
2021/06/10 02:51:42;;;;;;;9.55;8.70;;;;;;;17.33;100.00;101287.00;5017995;28;20222;-76
2021/06/10 02:54:13;;;;;;;9.70;8.80;;;;;;;17.19;100.00;101286.13;5020191;28;20190;-75
2021/06/10 02:56:41;;;;;;;9.43;8.63;;;;;;;17.43;100.00;101273.09;5032082;28;20227;-76
2021/06/10 02:59:11;;;;;;;9.48;8.70;;;;;;;17.40;100.00;101274.50;5035740;28;20178;-76
2021/06/10 03:01:41;;;;;;;9.85;8.82;;;;;;;17.58;100.00;101275.56;5018029;28;20229;-77
2021/06/10 03:04:10;;;;;;;9.52;8.82;;;;;;;17.52;100.00;101260.28;5032667;28;20186;-75
2021/06/10 03:06:36;;;;;;;10.02;9.23;;;;;;;17.46;100.00;101262.31;4999948;28;20223;-75
2021/06/10 03:09:01;;;;;;;9.90;9.02;;;;;;;17.41;100.00;101265.13;5016072;28;20187;-76
2021/06/10 03:11:27;;;;;;;9.55;8.73;;;;;;;17.27;100.00;101262.66;5015411;28;20223;-76
2021/06/10 03:13:53;;;;;;;9.55;8.75;;;;;;;17.43;100.00;101264.84;4999343;28;20709;-76
2021/06/10 03:16:23;;;;;;;10.23;9.23;;;;;;;17.57;100.00;101271.19;5016513;28;20346;-77
2021/06/10 03:18:56;;;;;;;9.90;9.00;;;;;;;17.46;100.00;101264.25;5000926;28;20554;-75
2021/06/10 03:21:21;;;;;;;9.18;8.38;;;;;;;17.40;100.00;101269.03;5015923;28;20223;-74
2021/06/10 03:23:52;;;;;;;9.65;8.85;;;;;;;17.31;100.00;101266.44;4999172;28;20183;-76
2021/06/10 03:26:19;;;;;;;10.32;9.40;;;;;;;17.13;100.00;101270.03;5016227;28;20238;-77
2021/06/10 03:28:45;;;;;;;10.70;9.77;;;;;;;17.22;100.00;101271.00;5033010;28;20184;-76
2021/06/10 03:31:10;;;;;;;9.85;9.05;;;;;;;17.19;100.00;101266.09;5032952;28;20218;-75
2021/06/10 03:33:39;;;;;;;10.45;9.65;;;;;;;17.26;100.00;101269.28;5039282;28;20581;-75
2021/06/10 03:36:05;;;;;;;10.88;10.05;;;;;;;17.28;100.00;101265.13;5022646;28;20226;-76
2021/06/10 03:38:31;;;;;;;10.38;9.52;;;;;;;17.27;100.00;101270.91;5023123;28;20609;-76
2021/06/10 03:40:57;;;;;;;10.18;9.23;;;;;;;17.20;100.00;101265.81;5055657;28;20289;-76
2021/06/10 03:43:25;;;;;;;10.18;9.27;;;;;;;17.33;100.00;101268.59;5056245;28;20222;-76
2021/06/10 03:45:51;;;;;;;10.40;9.50;;;;;;;17.37;100.00;101266.06;5022011;28;20227;-76
2021/06/10 03:48:16;;;;;;;11.00;10.10;;;;;;;17.36;100.00;101276.25;5022717;28;20260;-76
2021/06/10 03:50:42;;;;;;;10.25;9.43;;;;;;;17.26;100.00;101263.78;5038329;28;20254;-76
2021/06/10 03:53:08;;;;;;;11.32;10.25;;;;;;;17.23;100.00;101269.88;5039106;28;20191;-76
2021/06/10 03:55:34;;;;;;;10.32;9.48;;;;;;;17.25;100.00;101267.66;5038287;28;20229;-76
2021/06/10 03:58:00;;;;;;;10.45;9.43;;;;;;;17.20;100.00;101263.06;5039331;28;20598;-76
2021/06/10 04:00:25;;;;;;;10.35;9.35;;;;;;;17.27;100.00;101266.25;5021856;28;20222;-76
2021/06/10 04:02:51;;;;;;;11.27;10.38;;;;;;;17.32;100.00;101270.81;5063773;28;20651;-77
2021/06/10 04:05:17;;;;;;;11.30;10.32;;;;;;;17.46;100.00;101264.25;5022097;28;20183;-76
2021/06/10 04:07:44;;;;;;;10.85;9.95;;;;;;;17.71;100.00;101261.84;5039248;28;20258;-76
2021/06/10 04:10:11;;;;;;;10.60;9.70;;;;;;;17.67;100.00;101268.25;5038825;28;20202;-76
2021/06/10 04:12:36;;;;;;;11.68;10.57;;;;;;;17.68;100.00;101270.69;5038151;28;20182;-75
2021/06/10 04:15:03;;;;;;;10.77;9.88;;;;;;;17.91;100.00;101267.75;5054884;28;20271;-75
2021/06/10 04:17:28;;;;;;;10.75;9.85;;;;;;;18.10;100.00;101259.44;5038479;28;20211;-76
2021/06/10 04:19:54;;;;;;;10.10;9.20;;;;;;;18.21;100.00;101267.97;5022120;28;20210;-76
2021/06/10 04:22:22;;;;;;;10.15;9.32;;;;;;;18.36;100.00;101259.38;5037311;28;20210;-76
2021/06/10 04:24:47;;;;;;;9.90;9.10;;;;;;;18.46;100.00;101264.69;5022702;28;20190;-76
2021/06/10 04:27:16;;;;;;;9.85;9.05;;;;;;;18.47;100.00;101274.56;5021732;28;20230;-76
2021/06/10 04:29:42;;;;;;;9.80;9.10;;;;;;;18.52;100.00;101268.94;5038690;28;20211;-76
2021/06/10 04:32:13;;;;;;;10.10;9.30;;;;;;;18.70;100.00;101265.22;5018649;28;20219;-77
2021/06/10 04:34:39;;;;;;;10.38;9.48;;;;;;;18.91;100.00;101264.44;5050205;28;20180;-76
2021/06/10 04:37:07;;;;;;;9.82;8.98;;;;;;;18.88;100.00;101265.88;5001585;28;20591;-75
2021/06/10 04:39:32;;;;;;;9.75;8.88;;;;;;;19.11;100.00;101275.78;5018076;28;20216;-75
2021/06/10 04:41:58;;;;;;;9.68;8.90;;;;;;;19.29;100.00;101275.59;5017432;28;20254;-76
2021/06/10 04:44:26;;;;;;;9.25;8.52;;;;;;;19.47;100.00;101274.59;5018512;28;20176;-74
2021/06/10 04:46:54;;;;;;;9.50;8.70;;;;;;;19.47;100.00;101274.59;5034518;28;20273;-75
2021/06/10 04:49:20;;;;;;;9.35;8.65;;;;;;;19.66;100.00;101275.97;5002149;28;20566;-76
2021/06/10 04:51:45;;;;;;;9.55;8.70;;;;;;;19.86;100.00;101280.97;5017195;28;20243;-76
2021/06/10 04:54:11;;;;;;;9.32;8.63;;;;;;;20.03;100.00;101275.53;5001983;28;20190;-77
2021/06/10 04:56:37;;;;;;;9.73;8.93;;;;;;;20.16;100.00;101272.66;5017996;28;20226;-74
2021/06/10 04:59:05;;;;;;;9.95;8.98;;;;;;;20.16;100.00;101272.66;5036330;28;20194;-75
2021/06/10 05:01:31;;;;;;;9.55;8.85;;;;;;;20.16;100.00;101275.44;5048568;28;20222;-78
2021/06/10 05:03:59;;;;;;;9.73;8.93;;;;;;;20.13;100.00;101264.22;5035693;28;20187;-74
2021/06/10 05:06:26;;;;;;;11.25;10.25;;;;;;;20.25;100.00;101270.72;5042010;28;20215;-76
2021/06/10 05:08:54;;;;;;;23.33;21.08;;;;;;;20.40;100.00;101274.97;5038299;28;20191;-76
2021/06/10 05:11:22;;;;;;;20.00;17.98;;;;;;;20.55;99.28;101276.16;5045263;28;20219;-75
2021/06/10 05:13:48;;;;;;;11.60;10.60;;;;;;;20.71;98.50;101274.56;5048206;28;20195;-75
2021/06/10 05:16:13;;;;;;;10.23;9.40;;;;;;;20.91;97.14;101276.69;5017777;28;20855;-75
2021/06/10 05:18:42;;;;;;;9.65;8.80;;;;;;;21.00;97.10;101285.78;5034653;28;20187;-74
2021/06/10 05:21:08;;;;;;;9.95;9.13;;;;;;;21.21;96.01;101281.22;5032991;28;20280;-75
2021/06/10 05:23:33;;;;;;;9.15;8.35;;;;;;;21.46;95.19;101284.78;5016328;28;20184;-75
2021/06/10 05:26:06;;;;;;;9.43;8.73;;;;;;;21.62;93.60;101277.59;5002781;28;20223;-73
2021/06/10 05:28:34;;;;;;;9.65;8.85;;;;;;;21.69;93.16;101283.44;5031748;28;20199;-72
2021/06/10 05:31:05;;;;;;;9.82;9.02;;;;;;;21.80;92.51;101284.72;5037144;28;20231;-74
2021/06/10 05:33:30;;;;;;;10.90;10.00;;;;;;;21.99;91.12;101287.88;5031796;28;20625;-74
2021/06/10 05:35:59;;;;;;;10.43;9.50;;;;;;;22.06;90.11;101289.78;5016974;28;20611;-74
2021/06/10 05:38:27;;;;;;;10.70;9.80;;;;;;;22.08;89.09;101284.72;5001108;28;20291;-74
2021/06/10 05:40:55;;;;;;;10.85;9.95;;;;;;;22.01;89.46;101275.31;5026812;28;20313;-74
2021/06/10 05:43:23;;;;;;;11.77;10.40;;;;;;;21.95;89.82;101286.94;5034952;28;20270;-74
2021/06/10 05:45:52;;;;;;;10.65;9.65;;;;;;;21.92;90.00;101282.84;5018991;28;20231;-74
2021/06/10 05:48:18;;;;;;;10.57;9.68;;;;;;;22.01;89.42;101284.47;5004381;28;20186;-75
2021/06/10 05:50:53;;;;;;;11.63;10.73;;;;;;;21.95;88.16;101290.50;5052597;28;20241;-75
2021/06/10 05:53:21;;;;;;;11.27;10.38;;;;;;;21.80;89.60;101287.47;5067968;28;20273;-75
2021/06/10 05:55:47;;;;;;;11.50;10.50;;;;;;;21.85;89.56;101298.34;5051973;28;20214;-76
2021/06/10 05:58:13;;;;;;;12.30;11.20;;;;;;;21.93;90.03;101284.50;5036683;28;20214;-75
2021/06/10 06:00:41;;;;;;;11.18;10.27;;;;;;;22.08;90.07;101281.97;5032732;28;20223;-74
2021/06/10 06:03:08;;;;;;;11.68;10.68;;;;;;;22.18;89.58;101281.63;5043488;28;20190;-75
2021/06/10 06:05:37;;;;;;;11.63;10.60;;;;;;;22.32;88.74;101282.19;5034772;28;20284;-77
2021/06/10 06:08:05;;;;;;;12.18;11.07;;;;;;;22.49;88.34;101290.41;5036817;28;20317;-74
2021/06/10 06:10:34;;;;;;;11.35;10.35;;;;;;;22.63;87.68;101280.69;5035811;28;20291;-74
2021/06/10 06:13:02;;;;;;;11.23;10.32;;;;;;;22.84;85.47;101278.75;5035718;28;20252;-73
2021/06/10 06:15:30;;;;;;;11.63;10.63;;;;;;;22.80;84.37;101284.16;5053208;28;20700;-74
2021/06/10 06:17:55;;;;;;;10.85;9.95;;;;;;;22.77;82.96;101280.47;5020988;28;20995;-74
2021/06/10 06:20:23;;;;;;;11.20;10.20;;;;;;;22.86;81.62;101282.00;5036745;28;20268;-74
2021/06/10 06:22:49;;;;;;;10.35;9.35;;;;;;;22.93;82.25;101291.44;5028877;28;20190;-75
2021/06/10 06:25:20;;;;;;;10.48;9.57;;;;;;;23.11;81.90;101283.78;5028135;28;20194;-75
2021/06/10 06:27:45;;;;;;;10.00;9.20;;;;;;;23.20;81.69;101283.38;5029363;28;20191;-75
2021/06/10 06:30:11;;;;;;;10.02;9.15;;;;;;;23.37;80.61;101290.69;5024608;28;20207;-75
2021/06/10 06:32:42;;;;;;;9.60;8.80;;;;;;;23.46;79.84;101283.94;5026696;28;20202;-75
2021/06/10 06:35:08;;;;;;;8.88;8.00;;;;;;;23.66;77.19;101283.91;5052488;28;20649;-75
2021/06/10 06:37:36;;;;;;;8.45;7.75;;;;;;;23.83;74.28;101288.44;5019289;28;20290;-74
2021/06/10 06:40:05;;;;;;;8.30;7.50;;;;;;;23.89;71.38;101289.84;5028772;28;20210;-75
2021/06/10 06:42:36;;;;;;;8.32;7.63;;;;;;;23.70;69.14;101293.16;5051149;28;20215;-75
2021/06/10 06:45:05;;;;;;;8.95;8.15;;;;;;;23.94;67.46;101293.19;5036774;28;20183;-74
2021/06/10 06:47:36;;;;;;;7.82;7.13;;;;;;;24.08;65.52;101293.66;5019557;28;20194;-75
2021/06/10 06:50:04;;;;;;;7.25;6.65;;;;;;;24.05;63.85;101288.81;5036450;28;20593;-74
2021/06/10 06:52:29;;;;;;;7.38;6.78;;;;;;;23.66;63.92;101297.78;5030687;28;20306;-75
2021/06/10 06:54:55;;;;;;;7.38;6.63;;;;;;;23.46;67.33;101302.50;5007453;28;20601;-75
2021/06/10 06:57:23;;;;;;;6.78;6.18;;;;;;;24.40;65.34;101279.72;5011065;28;20224;-75
2021/06/10 06:59:51;;;;;;;7.57;6.78;;;;;;;24.10;62.97;101285.78;5015186;28;21019;-74
2021/06/10 07:02:17;;;;;;;6.55;5.95;;;;;;;24.52;63.61;101293.56;5025776;28;20727;-76
2021/06/10 07:04:42;;;;;;;5.80;5.32;;;;;;;24.49;61.09;101291.50;5039307;28;20190;-74
2021/06/10 07:07:08;;;;;;;6.07;5.50;;;;;;;24.93;57.62;101296.91;5039401;28;20240;-73
2021/06/10 07:09:36;;;;;;;4.55;4.15;;;;;;;24.81;53.87;101296.88;5023508;28;20211;-74
2021/06/10 07:12:04;;;;;;;5.10;4.47;;;;;;;24.74;52.96;101297.50;5051383;28;20230;-73
2021/06/10 07:14:32;;;;;;;5.43;4.47;;;;;;;24.68;55.80;101303.63;5036661;28;20203;-73
2021/06/10 07:16:59;;;;;;;4.35;3.95;;;;;;;24.84;53.97;101308.13;5018674;28;20342;-74
2021/06/10 07:19:25;;;;;;;5.15;4.50;;;;;;;24.93;54.65;101305.25;5047187;28;20680;-74
2021/06/10 07:21:52;;;;;;;5.30;4.85;;;;;;;24.59;55.01;101300.16;5041392;28;20608;-73
2021/06/10 07:24:18;;;;;;;5.07;4.72;;;;;;;24.93;56.90;101305.25;5003415;28;20191;-74
2021/06/10 07:26:47;;;;;;;5.80;5.22;;;;;;;24.38;55.76;101315.38;5018807;28;20219;-74
2021/06/10 07:29:13;;;;;;;5.72;5.22;;;;;;;24.64;57.30;101302.72;5014863;28;20184;-75
2021/06/10 07:31:41;;;;;;;6.05;5.45;;;;;;;24.61;59.31;101311.75;5037941;28;20222;-75
2021/06/10 07:34:07;;;;;;;6.47;5.88;;;;;;;24.74;59.22;101316.13;5021054;28;20683;-74
2021/06/10 07:36:33;;;;;;;6.07;5.50;;;;;;;24.80;56.69;101309.19;5013959;28;20272;-74
2021/06/10 07:39:02;;;;;;;5.90;5.40;;;;;;;25.04;56.60;101311.94;5047269;28;20187;-74
2021/06/10 07:41:30;;;;;;;6.43;5.82;;;;;;;25.27;54.85;101322.16;5051530;28;20220;-74
2021/06/10 07:43:58;;;;;;;6.10;5.47;;;;;;;24.98;55.60;101314.16;5018391;28;20552;-74
2021/06/10 07:46:26;;;;;;;5.30;4.80;;;;;;;25.43;57.52;101315.50;5046613;28;20242;-75
2021/06/10 07:48:54;;;;;;;6.32;5.82;;;;;;;24.65;58.48;101312.69;5045540;28;20215;-74
2021/06/10 07:51:22;;;;;;;6.05;5.55;;;;;;;25.18;56.16;101313.97;5038086;28;20708;-75
2021/06/10 07:53:50;;;;;;;6.43;5.93;;;;;;;24.93;57.28;101324.72;5037977;28;20218;-74
2021/06/10 07:56:16;;;;;;;5.97;5.47;;;;;;;25.40;54.96;101321.78;5038580;28;20582;-75
2021/06/10 07:58:46;;;;;;;5.90;5.30;;;;;;;25.81;53.40;101319.38;5055573;28;20269;-74
2021/06/10 08:01:17;;;;;;;6.15;5.55;;;;;;;25.42;53.73;101318.63;5054915;28;20237;-72
2021/06/10 08:03:46;;;;;;;7.93;6.10;;;;;;;25.13;54.02;101321.75;5026567;28;20192;-73
2021/06/10 08:06:11;;;;;;;6.30;5.80;;;;;;;25.05;54.96;101325.47;5017965;28;20254;-75
2021/06/10 08:08:39;;;;;;;5.93;5.43;;;;;;;25.19;57.38;101325.91;5035166;28;20183;-74
2021/06/10 08:11:06;;;;;;;6.93;5.78;;;;;;;25.39;56.29;101325.72;5017688;28;20239;-74
2021/06/10 08:13:32;;;;;;;5.63;5.13;;;;;;;25.58;53.27;101320.31;5034200;28;20192;-73
2021/06/10 08:15:58;;;;;;;5.80;5.22;;;;;;;25.96;53.19;101329.75;5017055;28;20230;-73
2021/06/10 08:18:28;;;;;;;5.18;4.78;;;;;;;25.90;52.92;101324.78;5020998;28;20219;-73
2021/06/10 08:20:59;;;;;;;5.00;4.55;;;;;;;25.65;54.96;101328.88;4998530;28;20219;-74
2021/06/10 08:23:25;;;;;;;5.60;5.10;;;;;;;25.68;53.48;101334.53;5062886;28;20257;-73
2021/06/10 08:25:53;;;;;;;5.22;4.72;;;;;;;25.63;53.09;101322.84;5035159;28;20855;-74
2021/06/10 08:28:21;;;;;;;5.68;4.85;;;;;;;26.10;51.26;101330.13;5021770;28;20385;-75
2021/06/10 08:30:49;;;;;;;5.13;4.72;;;;;;;26.12;50.88;101325.81;5019992;28;20273;-74
2021/06/10 08:33:17;;;;;;;4.75;4.35;;;;;;;26.38;52.00;101324.09;5020733;28;20521;-74
2021/06/10 08:35:43;;;;;;;5.43;4.93;;;;;;;25.91;51.13;101332.78;5037666;28;20219;-75
2021/06/10 08:38:10;;;;;;;4.75;4.35;;;;;;;26.69;50.94;101321.28;5054355;28;20723;-74
2021/06/10 08:40:38;;;;;;;5.53;5.10;;;;;;;26.63;49.17;101319.13;5037731;28;20231;-75
2021/06/10 08:43:08;;;;;;;4.75;4.35;;;;;;;26.97;49.68;101322.75;5038029;28;20187;-74
2021/06/10 08:45:33;;;;;;;5.40;4.65;;;;;;;26.63;50.50;101331.09;5037252;28;20215;-74
2021/06/10 08:48:00;;;;;;;5.35;4.85;;;;;;;26.49;50.78;101327.97;5037629;28;20597;-75
2021/06/10 08:50:27;;;;;;;5.63;5.13;;;;;;;26.67;51.50;101323.63;5037184;28;20207;-75
2021/06/10 08:52:55;;;;;;;6.30;5.70;;;;;;;25.91;51.69;101332.78;5016426;28;20198;-74
2021/06/10 08:55:21;;;;;;;5.55;5.10;;;;;;;26.54;51.11;101324.13;5049898;28;20641;-75
2021/06/10 08:57:47;;;;;;;5.45;5.05;;;;;;;26.22;51.78;101316.91;5017287;28;20298;-75
2021/06/10 09:00:18;;;;;;;5.28;4.78;;;;;;;26.82;50.59;101320.81;5042190;28;20337;-74
2021/06/10 09:02:55;;;;;;;5.32;4.82;;;;;;;26.78;50.70;101322.69;5044366;28;20550;-74
2021/06/10 09:05:21;;;;;;;4.70;4.30;;;;;;;26.62;52.57;101318.31;5042092;28;20182;-75
2021/06/10 09:07:53;;;;;;;5.00;4.50;;;;;;;26.89;51.95;101326.56;5017012;28;20553;-76
2021/06/10 09:10:32;;;;;;;5.18;4.78;;;;;;;27.23;50.47;101320.97;5028293;28;20290;-76
2021/06/10 09:13:01;;;;;;;5.22;4.82;;;;;;;27.38;49.94;101322.88;5017445;28;20543;-75
2021/06/10 09:15:31;;;;;;;4.78;4.40;;;;;;;27.45;50.63;101325.03;5017646;28;20280;-76
2021/06/10 09:18:01;;;;;;;4.80;4.40;;;;;;;27.75;49.38;101327.66;5062463;28;20272;-75
2021/06/10 09:20:42;;;;;;;4.90;4.50;;;;;;;27.53;50.55;101327.59;5033685;28;20229;-74
2021/06/10 09:23:19;;;;;;;5.18;4.78;;;;;;;27.03;49.15;101326.06;5026433;28;20190;-75
2021/06/10 09:25:46;;;;;;;5.10;4.70;;;;;;;27.17;51.04;101329.97;5008390;28;20216;-74
2021/06/10 09:28:12;;;;;;;5.28;4.88;;;;;;;27.06;49.25;101326.16;5027402;28;20179;-74
2021/06/10 09:30:45;;;;;;;5.65;4.70;;;;;;;26.97;49.74;101333.91;5028323;28;20288;-75
2021/06/10 09:33:13;;;;;;;4.88;4.47;;;;;;;26.95;48.65;101327.91;5043808;28;20198;-76
2021/06/10 09:35:40;;;;;;;6.20;5.50;;;;;;;27.33;49.82;101330.75;5001007;28;20218;-74
2021/06/10 09:38:10;;;;;;;5.32;4.47;;;;;;;27.54;49.45;101320.81;5010457;28;20215;-76
2021/06/10 09:40:36;;;;;;;5.57;5.07;;;;;;;27.47;47.97;101328.25;5031548;28;20307;-75
2021/06/10 09:43:04;;;;;;;6.45;5.85;;;;;;;27.77;45.76;101327.28;5035439;28;20194;-75
2021/06/10 09:45:30;;;;;;;6.82;6.32;;;;;;;27.86;45.10;101317.47;5049048;28;20218;-75
2021/06/10 09:47:59;;;;;;;5.72;5.22;;;;;;;28.45;44.61;101310.97;5002372;28;20206;-76
2021/06/10 09:50:29;;;;;;;5.30;4.90;;;;;;;28.10;46.63;101322.75;5025882;28;20207;-76
2021/06/10 09:52:59;;;;;;;4.75;4.45;;;;;;;28.39;47.10;101320.06;5033963;28;20245;-77
2021/06/10 09:55:52;;;;;;;5.45;4.95;;;;;;;28.25;46.43;101317.00;5024680;28;20227;-75
2021/06/10 09:58:20;;;;;;;5.53;4.85;;;;;;;27.62;47.62;101323.41;5066745;28;20696;-76
2021/06/10 10:00:48;;;;;;;8.13;7.35;;;;;;;27.76;44.94;101315.28;5054902;28;20239;-76
2021/06/10 10:03:29;;;;;;;5.75;5.28;;;;;;;27.70;47.50;101311.19;5054968;28;20195;-74
2021/06/10 10:06:12;;;;;;;7.50;6.90;;;;;;;27.84;46.07;101311.47;5038885;28;20211;-76
2021/06/10 10:08:38;;;;;;;5.43;5.03;;;;;;;27.57;47.52;101312.53;5020233;28;20209;-76
2021/06/10 10:11:07;;;;;;;6.15;5.65;;;;;;;27.86;45.90;101306.31;5031053;28;20268;-76
2021/06/10 10:13:39;;;;;;;6.93;6.32;;;;;;;28.00;44.29;101307.38;5035659;28;20190;-76
2021/06/10 10:16:05;;;;;;;7.05;6.45;;;;;;;27.48;45.79;101305.56;5031872;28;20329;-75
2021/06/10 10:18:33;;;;;;;6.25;5.75;;;;;;;28.07;46.31;101307.50;5012141;28;20211;-75
2021/06/10 10:21:00;;;;;;;6.40;5.90;;;;;;;28.17;45.38;101306.06;5018431;28;20250;-76
2021/06/10 10:23:25;;;;;;;5.85;5.45;;;;;;;28.24;41.72;101303.41;5013794;28;20559;-76
2021/06/10 10:25:56;;;;;;;8.23;5.85;;;;;;;27.25;44.32;101312.19;5015116;28;20218;-76
2021/06/10 10:28:21;;;;;;;5.68;5.18;;;;;;;28.03;44.59;101298.25;5029126;28;20710;-75
2021/06/10 10:30:47;;;;;;;6.20;5.70;;;;;;;28.27;44.66;101295.06;5025799;28;20215;-75
2021/06/10 10:33:21;;;;;;;5.60;5.10;;;;;;;28.19;44.16;101310.13;5018617;28;20301;-75
2021/06/10 10:35:52;;;;;;;5.82;5.35;;;;;;;27.71;44.55;101303.59;5032068;28;20668;-74
2021/06/10 10:38:21;;;;;;;5.90;5.40;;;;;;;27.98;43.05;101308.91;5019436;28;20258;-74
2021/06/10 10:40:53;;;;;;;6.22;5.72;;;;;;;27.57;44.67;101304.13;5024380;28;20693;-76
2021/06/10 10:43:23;;;;;;;5.75;5.15;;;;;;;27.78;43.45;101304.53;5026841;28;20171;-76
2021/06/10 10:46:15;;;;;;;8.38;6.15;;;;;;;27.36;45.24;101302.06;4999516;28;20231;-76
2021/06/10 10:48:42;;;;;;;5.97;5.38;;;;;;;27.47;45.17;101295.53;5032335;28;20164;-76
2021/06/10 10:51:33;;;;;;;7.20;6.18;;;;;;;27.20;44.38;101304.16;5015656;28;20254;-75
2021/06/10 10:54:03;;;;;;;7.53;6.93;;;;;;;27.13;45.60;101304.00;5000964;28;20191;-74
2021/06/10 10:56:39;;;;;;;7.75;7.05;;;;;;;27.34;46.90;101298.84;5000367;28;20701;-76
2021/06/10 10:59:16;;;;;;;6.18;5.60;;;;;;;27.96;45.75;101300.09;5003666;28;20249;-76
2021/06/10 11:01:42;;;;;;;7.43;6.82;;;;;;;28.48;45.49;101287.00;5035589;28;20238;-76
2021/06/10 11:04:13;;;;;;;6.30;5.80;;;;;;;28.27;45.48;101277.50;5020520;28;20202;-76
2021/06/10 11:06:38;;;;;;;6.45;5.82;;;;;;;28.45;43.73;101291.38;5015709;28;20307;-77
2021/06/10 11:09:14;;;;;;;5.65;5.25;;;;;;;28.37;44.39;101284.06;4999956;28;20187;-76
2021/06/10 11:11:56;;;;;;;6.00;5.38;;;;;;;28.03;44.80;101289.06;5016009;28;20659;-77
2021/06/10 11:14:35;;;;;;;5.40;4.90;;;;;;;28.36;44.31;101284.44;5032518;28;20176;-76
2021/06/10 11:17:17;;;;;;;6.50;6.00;;;;;;;28.47;42.84;101283.41;5015801;28;20241;-76
2021/06/10 11:20:01;;;;;;;4.90;4.50;;;;;;;28.96;43.13;101276.59;5032006;28;20211;-77
2021/06/10 11:22:35;;;;;;;5.43;4.93;;;;;;;29.05;41.69;101283.50;5015056;28;20719;-76
2021/06/10 11:25:05;;;;;;;5.90;5.10;;;;;;;28.79;42.19;101281.94;5016462;28;20191;-76